Time;durP1;ratioP1;P1;durP2;ratioP2;P2;SDS_P1;SDS_P2;PMS_P1;PMS_P2;Temp;Humidity;BMP_temperature;BMP_pressure;BME280_temperature;BME280_humidity;BME280_pressure;Samples;Min_cycle;Max_cycle;Signal;HPM_P1;HPM_P2
2021/07/01 00:00:22;;;;;;;5.35;4.90;;;;;;;;;;5136333;27;20305;-65
2021/07/01 00:02:52;;;;;;;5.50;4.97;;;;;;;;;;5135825;27;20222;-64
2021/07/01 00:05:21;;;;;;;5.05;4.55;;;;;;;;;;5136355;27;20199;-63
2021/07/01 00:07:50;;;;;;;5.63;4.95;;;;;;;;;;5136319;27;20291;-64
2021/07/01 00:10:19;;;;;;;5.10;4.60;;;;;;;;;;5136240;27;20195;-64
2021/07/01 00:12:48;;;;;;;4.90;4.50;;;;;;;;;;5135767;27;20217;-64
2021/07/01 00:15:19;;;;;;;4.85;4.40;;;;;;;;;;5135949;27;20194;-64
2021/07/01 00:17:47;;;;;;;6.80;4.65;;;;;;;;;;5135785;27;20558;-64
2021/07/01 00:20:17;;;;;;;4.88;4.47;;;;;;;;;;5135604;27;20295;-64
2021/07/01 00:22:45;;;;;;;4.63;4.22;;;;;;;;;;5135728;27;20314;-64
2021/07/01 00:25:15;;;;;;;6.15;4.25;;;;;;;;;;5135008;27;20376;-63
2021/07/01 00:27:44;;;;;;;6.20;4.22;;;;;;;;;;5135488;27;20210;-63
2021/07/01 00:30:13;;;;;;;4.30;3.90;;;;;;;;;;5135609;27;20195;-64
2021/07/01 00:32:41;;;;;;;6.05;4.63;;;;;;;;;;5135659;27;20197;-63
2021/07/01 00:35:10;;;;;;;4.88;4.10;;;;;;;;;;5135742;27;20198;-65
2021/07/01 00:37:40;;;;;;;5.28;4.88;;;;;;;;;;5135569;27;20285;-63
2021/07/01 00:40:09;;;;;;;5.72;5.07;;;;;;;;;;5135167;27;20201;-63
2021/07/01 00:42:38;;;;;;;6.10;5.50;;;;;;;;;;5135316;27;20217;-65
2021/07/01 00:45:07;;;;;;;7.78;6.20;;;;;;;;;;5115677;27;20200;-64
2021/07/01 00:47:35;;;;;;;6.47;5.88;;;;;;;;;;5114771;28;20227;-64
2021/07/01 00:50:07;;;;;;;8.73;6.82;;;;;;;;;;5125095;27;20231;-65
2021/07/01 00:52:35;;;;;;;7.15;6.43;;;;;;;;;;5135329;27;20270;-65
2021/07/01 00:55:05;;;;;;;6.93;6.32;;;;;;;;;;5135037;27;20289;-64
2021/07/01 00:57:34;;;;;;;8.30;5.90;;;;;;;;;;5134789;27;20211;-64
2021/07/01 01:00:07;;;;;;;7.18;6.25;;;;;;;;;;5135264;27;20211;-66
2021/07/01 01:02:35;;;;;;;7.43;5.68;;;;;;;;;;5134910;27;20234;-64
2021/07/01 01:05:03;;;;;;;5.78;5.28;;;;;;;;;;5135068;27;20203;-64
2021/07/01 01:07:32;;;;;;;5.88;5.30;;;;;;;;;;5135275;27;20203;-63
2021/07/01 01:10:00;;;;;;;5.18;4.70;;;;;;;;;;5134911;27;20199;-65
2021/07/01 01:12:30;;;;;;;5.18;4.68;;;;;;;;;;5134268;27;20737;-63
2021/07/01 01:14:58;;;;;;;6.03;4.43;;;;;;;;;;5134292;27;20206;-64
2021/07/01 01:17:26;;;;;;;5.53;4.40;;;;;;;;;;5134863;27;20195;-64
2021/07/01 01:19:54;;;;;;;4.68;4.28;;;;;;;;;;5134825;27;20237;-64
2021/07/01 01:22:25;;;;;;;4.90;4.32;;;;;;;;;;5134782;27;20210;-64
2021/07/01 01:24:53;;;;;;;4.20;3.90;;;;;;;;;;5135312;27;20199;-63
2021/07/01 01:27:22;;;;;;;4.43;4.03;;;;;;;;;;5135113;27;20201;-63
2021/07/01 01:29:55;;;;;;;4.60;4.20;;;;;;;;;;5134620;27;20198;-63
2021/07/01 01:32:23;;;;;;;4.60;3.83;;;;;;;;;;5134209;27;20199;-63
2021/07/01 01:34:51;;;;;;;3.80;3.50;;;;;;;;;;5134467;27;20297;-63
2021/07/01 01:37:19;;;;;;;3.90;3.55;;;;;;;;;;5134450;27;20199;-63
2021/07/01 01:39:50;;;;;;;3.90;3.60;;;;;;;;;;5134483;27;20205;-63
2021/07/01 01:42:18;;;;;;;4.57;3.33;;;;;;;;;;5134212;27;20218;-63
2021/07/01 01:44:46;;;;;;;3.65;3.35;;;;;;;;;;5133851;27;20615;-64
2021/07/01 01:47:15;;;;;;;4.20;3.90;;;;;;;;;;5134181;27;20293;-64
2021/07/01 01:49:45;;;;;;;4.35;3.40;;;;;;;;;;5133932;27;20322;-63
2021/07/01 01:52:13;;;;;;;4.88;3.70;;;;;;;;;;5134424;27;20190;-63
2021/07/01 01:54:41;;;;;;;4.65;3.95;;;;;;;;;;5134271;27;20293;-63
2021/07/01 01:57:11;;;;;;;4.28;3.90;;;;;;;;;;5133710;27;20301;-64
2021/07/01 01:59:53;;;;;;;4.22;3.83;;;;;;;;;;5134085;27;20187;-64
2021/07/01 02:02:21;;;;;;;4.32;3.92;;;;;;;;;;5134057;27;20311;-65
2021/07/01 02:04:50;;;;;;;4.85;4.25;;;;;;;;;;5133988;27;20202;-65
2021/07/01 02:07:18;;;;;;;4.45;4.05;;;;;;;;;;5134061;27;20281;-64
2021/07/01 02:09:46;;;;;;;5.22;4.13;;;;;;;;;;5133552;27;20740;-64
2021/07/01 02:12:15;;;;;;;4.70;4.20;;;;;;;;;;5133416;27;20205;-63
2021/07/01 02:14:44;;;;;;;5.40;4.53;;;;;;;;;;5133665;27;20199;-64
2021/07/01 02:17:12;;;;;;;4.65;4.07;;;;;;;;;;5133584;27;20204;-64
2021/07/01 02:19:40;;;;;;;7.28;5.22;;;;;;;;;;5133734;27;20293;-64
2021/07/01 02:22:09;;;;;;;5.20;4.80;;;;;;;;;;5133836;27;20297;-64
2021/07/01 02:24:37;;;;;;;5.95;4.68;;;;;;;;;;5133657;27;20209;-64
2021/07/01 02:27:05;;;;;;;5.97;5.07;;;;;;;;;;5133266;27;20203;-64
2021/07/01 02:29:35;;;;;;;5.95;4.75;;;;;;;;;;5133428;27;20194;-66
2021/07/01 02:32:04;;;;;;;6.22;5.28;;;;;;;;;;5133476;27;20225;-63
2021/07/01 02:34:32;;;;;;;6.45;5.85;;;;;;;;;;5133495;27;20199;-64
2021/07/01 02:37:00;;;;;;;5.60;5.10;;;;;;;;;;5133663;27;20195;-64
2021/07/01 02:39:28;;;;;;;5.90;5.40;;;;;;;;;;5133218;27;20291;-63
2021/07/01 02:41:56;;;;;;;5.80;5.20;;;;;;;;;;5133276;27;20199;-65
2021/07/01 02:44:25;;;;;;;6.35;5.78;;;;;;;;;;5119437;27;20850;-62
2021/07/01 02:46:54;;;;;;;6.97;6.30;;;;;;;;;;5112755;28;20282;-65
2021/07/01 02:49:23;;;;;;;11.43;6.65;;;;;;;;;;5116922;27;20248;-63
2021/07/01 02:51:52;;;;;;;7.50;6.70;;;;;;;;;;5133222;27;20183;-62
2021/07/01 02:54:20;;;;;;;7.85;7.15;;;;;;;;;;5133172;27;20199;-63
2021/07/01 02:56:49;;;;;;;8.27;7.47;;;;;;;;;;5132794;27;20205;-65
2021/07/01 02:59:19;;;;;;;8.15;7.13;;;;;;;;;;5133189;27;20201;-65
2021/07/01 03:01:48;;;;;;;7.93;7.13;;;;;;;;;;5132788;27;20658;-64
2021/07/01 03:04:17;;;;;;;9.07;7.78;;;;;;;;;;5132766;28;20612;-64
2021/07/01 03:06:46;;;;;;;8.75;7.85;;;;;;;;;;5132746;28;20681;-63
2021/07/01 03:09:14;;;;;;;9.85;7.88;;;;;;;;;;5133106;28;20613;-65
2021/07/01 03:11:42;;;;;;;9.88;8.88;;;;;;;;;;5132625;28;20552;-66
2021/07/01 03:14:10;;;;;;;9.40;8.50;;;;;;;;;;5133030;28;20277;-63
2021/07/01 03:16:38;;;;;;;9.88;8.88;;;;;;;;;;5132697;28;20293;-63
2021/07/01 03:19:06;;;;;;;11.50;8.65;;;;;;;;;;5132548;28;20684;-64
2021/07/01 03:21:36;;;;;;;11.95;9.77;;;;;;;;;;5132913;28;20194;-64
2021/07/01 03:24:05;;;;;;;9.55;8.48;;;;;;;;;;5132833;28;20232;-64
2021/07/01 03:26:33;;;;;;;9.75;8.75;;;;;;;;;;5132486;28;20741;-64
2021/07/01 03:29:01;;;;;;;11.38;9.43;;;;;;;;;;5132851;28;20234;-63
2021/07/01 03:31:29;;;;;;;11.73;9.75;;;;;;;;;;5132726;28;20221;-64
2021/07/01 03:33:57;;;;;;;13.45;9.82;;;;;;;;;;5132947;28;20575;-64
2021/07/01 03:36:25;;;;;;;11.05;9.95;;;;;;;;;;5132839;28;20201;-64
2021/07/01 03:38:56;;;;;;;11.05;9.45;;;;;;;;;;5132880;28;20197;-65
2021/07/01 03:41:24;;;;;;;13.02;10.40;;;;;;;;;;5133040;28;20290;-64
2021/07/01 03:43:52;;;;;;;12.23;10.38;;;;;;;;;;5132376;28;20320;-64
2021/07/01 03:46:21;;;;;;;11.25;9.68;;;;;;;;;;5132604;28;20198;-64
2021/07/01 03:48:49;;;;;;;11.98;10.52;;;;;;;;;;5132394;28;20294;-65
2021/07/01 03:51:18;;;;;;;13.35;10.10;;;;;;;;;;5132843;28;20208;-65
2021/07/01 03:53:46;;;;;;;13.40;10.75;;;;;;;;;;5132857;28;20563;-64
2021/07/01 03:56:15;;;;;;;11.88;10.57;;;;;;;;;;5132351;28;20282;-64
2021/07/01 03:58:44;;;;;;;11.00;9.90;;;;;;;;;;5131887;28;20199;-63
2021/07/01 04:01:12;;;;;;;12.35;10.50;;;;;;;;;;5130487;27;20198;-64
2021/07/01 04:03:40;;;;;;;15.73;11.02;;;;;;;;;;5135887;27;20218;-64
2021/07/01 04:06:08;;;;;;;12.02;10.38;;;;;;;;;;5136206;27;20203;-63
2021/07/01 04:08:38;;;;;;;11.05;9.93;;;;;;;;;;5136128;27;20569;-63
2021/07/01 04:11:09;;;;;;;12.48;11.18;;;;;;;;;;5135832;27;20202;-64
2021/07/01 04:13:39;;;;;;;11.82;10.52;;;;;;;;;;5136463;27;20187;-64
2021/07/01 04:16:07;;;;;;;15.43;10.70;;;;;;;;;;5136464;27;20205;-64
2021/07/01 04:18:35;;;;;;;12.75;9.48;;;;;;;;;;5135668;27;20202;-64
2021/07/01 04:21:04;;;;;;;12.00;10.75;;;;;;;;;;5115828;28;20258;-64
2021/07/01 04:23:32;;;;;;;11.70;10.23;;;;;;;;;;5115547;28;20223;-64
2021/07/01 04:26:01;;;;;;;11.10;9.88;;;;;;;;;;5115647;28;20543;-63
2021/07/01 04:28:29;;;;;;;12.18;10.70;;;;;;;;;;5115569;28;20381;-64
2021/07/01 04:30:59;;;;;;;13.35;10.90;;;;;;;;;;5115506;28;20235;-65
2021/07/01 04:33:28;;;;;;;13.13;9.85;;;;;;;;;;5115371;28;20785;-65
2021/07/01 04:35:56;;;;;;;11.73;9.55;;;;;;;;;;5115956;28;20195;-64
2021/07/01 04:38:25;;;;;;;14.13;10.85;;;;;;;;;;5115264;28;20667;-63
2021/07/01 04:40:54;;;;;;;11.98;10.10;;;;;;;;;;5115648;28;20278;-64
2021/07/01 04:43:22;;;;;;;10.88;9.77;;;;;;;;;;5119896;27;20271;-64
2021/07/01 04:45:50;;;;;;;11.25;9.98;;;;;;;;;;5135621;27;20663;-65
2021/07/01 04:48:20;;;;;;;11.43;10.18;;;;;;;;;;5135807;27;20289;-63
2021/07/01 04:50:49;;;;;;;10.93;9.23;;;;;;;;;;5135673;27;20326;-63
2021/07/01 04:53:17;;;;;;;10.52;9.43;;;;;;;;;;5135823;27;20198;-65
2021/07/01 04:55:45;;;;;;;10.63;9.48;;;;;;;;;;5135740;27;20289;-64
2021/07/01 04:58:13;;;;;;;10.98;9.55;;;;;;;;;;5135271;27;20538;-64
2021/07/01 05:00:41;;;;;;;9.60;8.70;;;;;;;;;;5135582;27;20199;-66
2021/07/01 05:03:09;;;;;;;11.20;9.88;;;;;;;;;;5135671;27;20238;-64
2021/07/01 05:05:39;;;;;;;10.48;9.48;;;;;;;;;;5134867;27;20698;-64
2021/07/01 05:08:08;;;;;;;11.50;9.50;;;;;;;;;;5135496;27;20569;-65
2021/07/01 05:10:36;;;;;;;9.98;8.98;;;;;;;;;;5135560;27;20205;-64
2021/07/01 05:13:05;;;;;;;9.60;8.30;;;;;;;;;;5134719;27;20209;-65
2021/07/01 05:15:34;;;;;;;9.88;8.98;;;;;;;;;;5135353;27;20195;-64
2021/07/01 05:18:02;;;;;;;10.32;9.13;;;;;;;;;;5135431;27;20201;-64
2021/07/01 05:20:30;;;;;;;10.02;9.00;;;;;;;;;;5135264;27;20295;-64
2021/07/01 05:23:00;;;;;;;10.43;9.40;;;;;;;;;;5135375;27;20292;-64
2021/07/01 05:25:28;;;;;;;10.60;9.43;;;;;;;;;;5134991;27;20650;-65
2021/07/01 05:27:56;;;;;;;10.73;9.45;;;;;;;;;;5134606;27;20624;-64
2021/07/01 05:30:24;;;;;;;10.27;9.10;;;;;;;;;;5134741;27;20886;-64
2021/07/01 05:32:53;;;;;;;11.70;10.00;;;;;;;;;;5134994;27;20199;-64
2021/07/01 05:35:21;;;;;;;10.27;9.23;;;;;;;;;;5135469;27;20205;-63
2021/07/01 05:37:49;;;;;;;9.95;9.02;;;;;;;;;;5135100;27;20205;-64
2021/07/01 05:40:22;;;;;;;10.68;9.38;;;;;;;;;;5134754;27;20565;-64
2021/07/01 05:42:50;;;;;;;10.90;9.80;;;;;;;;;;5134497;27;20273;-64
2021/07/01 05:45:18;;;;;;;11.05;9.30;;;;;;;;;;5134807;27;20215;-65
2021/07/01 05:47:46;;;;;;;10.32;9.30;;;;;;;;;;5134898;27;20209;-64
2021/07/01 05:50:15;;;;;;;10.98;9.00;;;;;;;;;;5134650;27;20240;-63
2021/07/01 05:52:49;;;;;;;9.32;8.43;;;;;;;;;;5134391;27;20198;-65
2021/07/01 05:55:19;;;;;;;8.73;7.82;;;;;;;;;;5134571;27;20273;-64
2021/07/01 05:57:47;;;;;;;9.13;7.90;;;;;;;;;;5134207;27;20290;-65
2021/07/01 06:00:17;;;;;;;9.05;8.07;;;;;;;;;;5134398;27;20602;-63
2021/07/01 06:02:46;;;;;;;9.85;8.27;;;;;;;;;;5134595;27;20195;-65
2021/07/01 06:05:14;;;;;;;8.52;7.65;;;;;;;;;;5134759;27;20309;-64
2021/07/01 06:07:47;;;;;;;8.80;8.00;;;;;;;;;;5134477;27;20221;-64
2021/07/01 06:10:17;;;;;;;9.00;7.32;;;;;;;;;;5134452;27;20282;-65
2021/07/01 06:12:47;;;;;;;7.75;6.82;;;;;;;;;;5134421;27;20215;-64
2021/07/01 06:15:15;;;;;;;8.10;7.03;;;;;;;;;;5134368;27;20199;-64
2021/07/01 06:17:44;;;;;;;8.73;5.25;;;;;;;;;;5134444;27;20560;-64
2021/07/01 06:20:13;;;;;;;4.85;4.35;;;;;;;;;;5134410;27;20202;-64
2021/07/01 06:22:41;;;;;;;4.97;4.28;;;;;;;;;;5134114;27;20237;-64
2021/07/01 06:25:10;;;;;;;4.28;3.88;;;;;;;;;;5133294;27;20248;-64
2021/07/01 06:27:38;;;;;;;4.07;3.72;;;;;;;;;;5133529;27;20552;-64
2021/07/01 06:30:14;;;;;;;5.00;3.83;;;;;;;;;;5133868;27;20230;-65
2021/07/01 06:32:45;;;;;;;4.68;4.20;;;;;;;;;;5133971;27;20273;-59
2021/07/01 06:35:14;;;;;;;4.53;3.65;;;;;;;;;;5134117;27;20175;-61
2021/07/01 06:37:43;;;;;;;3.78;3.47;;;;;;;;;;5134156;27;20198;-61
2021/07/01 06:40:11;;;;;;;5.65;4.05;;;;;;;;;;5133727;27;20293;-61
2021/07/01 06:42:44;;;;;;;5.07;4.47;;;;;;;;;;5133080;27;20206;-61
2021/07/01 06:45:14;;;;;;;5.68;4.47;;;;;;;;;;5113369;28;20218;-60
2021/07/01 06:47:46;;;;;;;4.57;4.15;;;;;;;;;;5113115;28;20319;-61
2021/07/01 06:50:15;;;;;;;4.88;4.38;;;;;;;;;;5112679;28;20229;-61
2021/07/01 06:52:44;;;;;;;6.47;4.70;;;;;;;;;;5113064;28;20199;-61
2021/07/01 06:55:13;;;;;;;5.50;4.60;;;;;;;;;;5112848;28;20204;-61
2021/07/01 06:57:41;;;;;;;7.53;5.05;;;;;;;;;;5112693;28;20613;-61
2021/07/01 07:00:10;;;;;;;5.55;4.65;;;;;;;;;;5112725;28;20294;-62
2021/07/01 07:02:41;;;;;;;6.55;4.30;;;;;;;;;;5113210;28;20195;-61
2021/07/01 07:05:10;;;;;;;7.35;4.32;;;;;;;;;;5112484;28;20318;-62
2021/07/01 07:07:40;;;;;;;4.32;3.92;;;;;;;;;;5117978;28;20198;-64
2021/07/01 07:10:09;;;;;;;6.45;4.28;;;;;;;;;;5110447;28;20199;-60
2021/07/01 07:12:40;;;;;;;5.40;3.95;;;;;;;;;;5109717;28;20234;-61
2021/07/01 07:15:10;;;;;;;5.57;3.92;;;;;;;;;;5110016;28;20180;-61
2021/07/01 07:17:39;;;;;;;5.22;4.50;;;;;;;;;;5112707;28;20209;-62
2021/07/01 07:20:09;;;;;;;7.18;4.07;;;;;;;;;;5109743;28;20199;-63
2021/07/01 07:22:40;;;;;;;6.00;3.97;;;;;;;;;;5109910;28;20190;-61
2021/07/01 07:25:10;;;;;;;4.65;3.60;;;;;;;;;;5109627;28;20206;-60
2021/07/01 07:27:39;;;;;;;6.13;3.90;;;;;;;;;;5109028;28;20257;-60
2021/07/01 07:30:07;;;;;;;5.30;3.80;;;;;;;;;;5109852;28;20203;-60
2021/07/01 07:32:39;;;;;;;4.18;3.78;;;;;;;;;;5109992;28;20206;-60
2021/07/01 07:35:13;;;;;;;7.00;3.88;;;;;;;;;;5111095;28;20183;-60
2021/07/01 07:37:42;;;;;;;4.93;3.55;;;;;;;;;;5113832;28;20200;-62
2021/07/01 07:40:11;;;;;;;3.75;3.38;;;;;;;;;;5113812;28;20203;-61
2021/07/01 07:42:39;;;;;;;5.13;3.78;;;;;;;;;;5113296;28;20238;-60
2021/07/01 07:45:09;;;;;;;6.25;3.40;;;;;;;;;;5133281;27;20265;-63
2021/07/01 07:47:37;;;;;;;3.90;3.50;;;;;;;;;;5133724;27;20194;-63
2021/07/01 07:50:06;;;;;;;4.05;3.45;;;;;;;;;;5133090;27;20348;-64
2021/07/01 07:52:36;;;;;;;3.58;3.17;;;;;;;;;;5128768;27;20344;-63
2021/07/01 07:55:06;;;;;;;3.10;2.80;;;;;;;;;;5129188;27;20183;-62
2021/07/01 07:57:35;;;;;;;3.75;3.30;;;;;;;;;;5112766;28;20607;-59
2021/07/01 08:00:05;;;;;;;3.45;3.05;;;;;;;;;;5113131;28;20268;-59
2021/07/01 08:02:39;;;;;;;3.42;2.90;;;;;;;;;;5110794;28;20554;-61
2021/07/01 08:05:08;;;;;;;4.75;2.58;;;;;;;;;;5095832;28;20188;-61
2021/07/01 08:07:39;;;;;;;4.32;2.90;;;;;;;;;;5095570;28;20292;-60
2021/07/01 08:10:09;;;;;;;3.38;2.17;;;;;;;;;;5095510;28;20195;-60
2021/07/01 08:12:41;;;;;;;2.30;2.10;;;;;;;;;;5094917;28;20189;-61
2021/07/01 08:15:11;;;;;;;3.72;2.80;;;;;;;;;;5095776;28;20187;-61
2021/07/01 08:17:41;;;;;;;3.63;2.30;;;;;;;;;;5095499;28;20238;-61
2021/07/01 08:20:10;;;;;;;2.88;2.10;;;;;;;;;;5095862;28;20219;-62
2021/07/01 08:22:43;;;;;;;2.20;2.00;;;;;;;;;;5095489;28;20235;-63
2021/07/01 08:25:12;;;;;;;2.50;2.30;;;;;;;;;;5095735;28;20290;-61
2021/07/01 08:27:41;;;;;;;4.95;2.40;;;;;;;;;;5095593;28;20219;-61
2021/07/01 08:30:11;;;;;;;2.30;2.10;;;;;;;;;;5095304;28;20691;-61
2021/07/01 08:32:40;;;;;;;3.17;2.05;;;;;;;;;;5095267;28;20549;-61
2021/07/01 08:35:12;;;;;;;2.70;2.38;;;;;;;;;;5095457;28;20287;-62
2021/07/01 08:37:42;;;;;;;2.80;2.10;;;;;;;;;;5095448;28;20291;-61
2021/07/01 08:40:15;;;;;;;3.13;2.63;;;;;;;;;;5095127;28;20191;-62
2021/07/01 08:42:43;;;;;;;3.58;2.55;;;;;;;;;;5095176;28;20207;-62
2021/07/01 08:45:12;;;;;;;2.50;2.30;;;;;;;;;;5135514;27;20290;-61
2021/07/01 08:47:41;;;;;;;4.60;2.28;;;;;;;;;;5135303;27;20215;-61
2021/07/01 08:50:12;;;;;;;2.30;2.10;;;;;;;;;;5135798;27;20293;-61
2021/07/01 08:52:45;;;;;;;3.08;2.03;;;;;;;;;;5135986;27;20256;-61
2021/07/01 08:55:28;;;;;;;1.83;1.73;;;;;;;;;;5135915;27;20209;-61
2021/07/01 08:57:58;;;;;;;3.08;2.10;;;;;;;;;;5135825;27;20274;-62
2021/07/01 09:00:28;;;;;;;2.22;1.73;;;;;;;;;;5135768;27;20269;-62
2021/07/01 09:03:04;;;;;;;2.72;2.28;;;;;;;;;;5135847;27;20195;-61
2021/07/01 09:05:32;;;;;;;3.17;2.10;;;;;;;;;;5135297;27;20578;-60
2021/07/01 09:08:02;;;;;;;2.10;1.90;;;;;;;;;;5135825;27;20441;-61
2021/07/01 09:10:33;;;;;;;3.10;2.08;;;;;;;;;;5135674;27;20286;-61
2021/07/01 09:13:04;;;;;;;2.85;2.63;;;;;;;;;;5135144;27;20232;-61
2021/07/01 09:15:32;;;;;;;5.13;2.17;;;;;;;;;;5135188;27;20223;-61
2021/07/01 09:18:01;;;;;;;2.08;1.92;;;;;;;;;;5135619;27;20571;-61
2021/07/01 09:20:33;;;;;;;2.67;2.47;;;;;;;;;;5135584;27;20507;-60
2021/07/01 09:23:03;;;;;;;2.67;1.65;;;;;;;;;;5135962;27;20187;-61
2021/07/01 09:25:33;;;;;;;3.15;1.95;;;;;;;;;;5135589;27;20201;-61
2021/07/01 09:28:01;;;;;;;2.05;1.90;;;;;;;;;;5135620;27;20688;-61
2021/07/01 09:30:30;;;;;;;1.70;1.60;;;;;;;;;;5135156;27;20570;-61
2021/07/01 09:32:59;;;;;;;2.45;1.50;;;;;;;;;;5135210;27;20293;-61
2021/07/01 09:35:28;;;;;;;3.42;1.60;;;;;;;;;;5135437;27;20226;-60
2021/07/01 09:37:56;;;;;;;1.35;1.25;;;;;;;;;;5135115;27;20642;-60
2021/07/01 09:40:25;;;;;;;1.85;1.60;;;;;;;;;;5135187;27;20198;-61
2021/07/01 09:42:56;;;;;;;1.65;1.50;;;;;;;;;;5134895;27;20214;-62
2021/07/01 09:45:25;;;;;;;3.83;1.90;;;;;;;;;;5134999;27;20189;-62
2021/07/01 09:47:55;;;;;;;1.83;1.40;;;;;;;;;;5135133;27;20223;-61
2021/07/01 09:50:24;;;;;;;3.20;2.00;;;;;;;;;;5134960;27;20241;-61
2021/07/01 09:52:58;;;;;;;3.58;2.00;;;;;;;;;;5134779;27;20618;-60
2021/07/01 09:55:27;;;;;;;2.03;1.90;;;;;;;;;;5134638;27;20198;-60
2021/07/01 09:58:00;;;;;;;2.30;2.00;;;;;;;;;;5134086;27;20202;-60
2021/07/01 10:00:31;;;;;;;2.83;2.20;;;;;;;;;;5134229;27;20183;-61
2021/07/01 10:03:03;;;;;;;5.35;1.95;;;;;;;;;;5134680;27;20183;-61
2021/07/01 10:05:31;;;;;;;3.28;2.10;;;;;;;;;;5134795;27;20199;-60
2021/07/01 10:08:00;;;;;;;3.00;2.17;;;;;;;;;;5134964;27;20214;-61
2021/07/01 10:10:28;;;;;;;1.98;1.77;;;;;;;;;;5134481;27;20252;-60
2021/07/01 10:12:59;;;;;;;1.52;1.30;;;;;;;;;;5134223;27;20680;-61
2021/07/01 10:15:28;;;;;;;2.63;1.80;;;;;;;;;;5133008;27;20511;-60
2021/07/01 10:18:04;;;;;;;2.15;1.80;;;;;;;;;;5133107;27;20191;-61
2021/07/01 10:20:52;;;;;;;1.70;1.60;;;;;;;;;;5126471;27;20195;-61
2021/07/01 10:23:21;;;;;;;2.05;1.60;;;;;;;;;;5133741;27;20187;-61
2021/07/01 10:25:50;;;;;;;3.45;1.90;;;;;;;;;;5134370;27;20205;-60
2021/07/01 10:28:21;;;;;;;3.00;1.63;;;;;;;;;;5130575;27;20217;-59
2021/07/01 10:30:58;;;;;;;1.63;1.52;;;;;;;;;;5133661;27;20269;-60
2021/07/01 10:33:27;;;;;;;1.83;1.73;;;;;;;;;;5133670;27;20186;-61
2021/07/01 10:35:58;;;;;;;1.80;1.55;;;;;;;;;;5130266;27;20203;-60
2021/07/01 10:38:27;;;;;;;2.33;1.63;;;;;;;;;;5130215;27;20191;-60
2021/07/01 10:40:56;;;;;;;1.50;1.40;;;;;;;;;;5110526;28;20286;-60
2021/07/01 10:43:40;;;;;;;2.45;1.70;;;;;;;;;;5115471;27;20213;-60
2021/07/01 10:46:08;;;;;;;2.00;1.80;;;;;;;;;;5130523;27;20194;-61
2021/07/01 10:48:37;;;;;;;2.03;1.83;;;;;;;;;;5130744;27;20222;-60
2021/07/01 10:51:09;;;;;;;1.70;1.60;;;;;;;;;;5129717;27;20698;-60
2021/07/01 10:53:38;;;;;;;1.60;1.50;;;;;;;;;;5130708;27;20641;-61
2021/07/01 10:56:08;;;;;;;2.38;1.70;;;;;;;;;;5130752;27;20301;-62
2021/07/01 10:58:37;;;;;;;1.95;1.85;;;;;;;;;;5130363;27;20202;-60
2021/07/01 11:01:23;;;;;;;1.83;1.73;;;;;;;;;;5130455;27;20274;-60
2021/07/01 11:04:04;;;;;;;1.90;1.60;;;;;;;;;;5130524;27;20193;-61
2021/07/01 11:06:32;;;;;;;2.40;1.60;;;;;;;;;;5130508;28;20283;-61
2021/07/01 11:09:01;;;;;;;1.55;1.42;;;;;;;;;;5130261;28;21034;-60
2021/07/01 11:11:34;;;;;;;2.33;1.88;;;;;;;;;;5130416;28;20179;-61
2021/07/01 11:14:03;;;;;;;1.90;1.58;;;;;;;;;;5130221;28;20658;-60
2021/07/01 11:16:38;;;;;;;1.67;1.58;;;;;;;;;;5130302;28;20191;-60
2021/07/01 11:19:07;;;;;;;2.67;1.55;;;;;;;;;;5130836;28;20182;-60
2021/07/01 11:21:36;;;;;;;2.50;1.50;;;;;;;;;;5130356;28;20199;-61
2021/07/01 11:24:15;;;;;;;2.88;1.40;;;;;;;;;;5130117;28;20745;-61
2021/07/01 11:26:44;;;;;;;1.52;1.30;;;;;;;;;;5130762;28;20182;-61
2021/07/01 11:29:12;;;;;;;1.42;1.33;;;;;;;;;;5130442;28;20218;-60
2021/07/01 11:31:43;;;;;;;3.33;1.27;;;;;;;;;;5130185;28;20653;-61
2021/07/01 11:34:12;;;;;;;2.20;1.33;;;;;;;;;;5130336;28;20183;-59
2021/07/01 11:36:40;;;;;;;1.92;1.20;;;;;;;;;;5129960;28;20225;-61
2021/07/01 11:39:11;;;;;;;2.80;1.10;;;;;;;;;;5129771;28;20198;-60
2021/07/01 11:41:39;;;;;;;1.60;1.23;;;;;;;;;;5130133;28;20186;-61
2021/07/01 11:44:08;;;;;;;2.13;1.40;;;;;;;;;;5129945;28;20290;-60
2021/07/01 11:46:37;;;;;;;1.38;1.23;;;;;;;;;;5129900;28;20211;-59
2021/07/01 11:49:08;;;;;;;2.55;1.23;;;;;;;;;;5129936;28;20222;-59
2021/07/01 11:51:37;;;;;;;2.05;1.60;;;;;;;;;;5129748;28;20186;-61
2021/07/01 11:54:05;;;;;;;1.50;1.40;;;;;;;;;;5130016;28;20198;-60
2021/07/01 11:59:16;;;;;;;2.92;1.50;;;;;;;;;;5128919;28;20293;-60
2021/07/01 12:01:44;;;;;;;1.95;1.73;;;;;;;;;;5129770;28;20209;-60
2021/07/01 12:04:14;;;;;;;5.00;1.63;;;;;;;;;;5129551;28;20200;-60
2021/07/01 12:06:46;;;;;;;1.80;1.70;;;;;;;;;;5129698;28;20242;-60
2021/07/01 12:09:14;;;;;;;1.52;1.42;;;;;;;;;;5129724;28;20209;-59
2021/07/01 12:12:01;;;;;;;1.77;1.67;;;;;;;;;;5130167;28;20195;-59
2021/07/01 12:14:33;;;;;;;2.65;1.50;;;;;;;;;;5129255;28;20919;-60
2021/07/01 12:17:01;;;;;;;2.00;1.80;;;;;;;;;;5129943;28;20194;-60
2021/07/01 12:19:44;;;;;;;2.45;1.70;;;;;;;;;;5129212;28;20295;-59
2021/07/01 12:22:36;;;;;;;1.55;1.45;;;;;;;;;;5130398;27;20198;-59
2021/07/01 12:25:06;;;;;;;1.60;1.50;;;;;;;;;;5132998;27;20200;-60
2021/07/01 12:27:35;;;;;;;1.63;1.30;;;;;;;;;;5133307;27;20199;-60
2021/07/01 12:30:04;;;;;;;1.50;1.40;;;;;;;;;;5132984;27;20207;-60
2021/07/01 12:32:33;;;;;;;1.40;1.30;;;;;;;;;;5133245;27;20206;-60
2021/07/01 12:35:22;;;;;;;1.20;1.10;;;;;;;;;;5132828;27;20245;-60
2021/07/01 12:38:05;;;;;;;2.45;1.40;;;;;;;;;;5132847;27;20566;-62
2021/07/01 12:40:34;;;;;;;2.88;1.38;;;;;;;;;;5132073;27;20540;-60
2021/07/01 12:43:03;;;;;;;1.63;1.52;;;;;;;;;;5132931;27;20209;-59
2021/07/01 12:45:31;;;;;;;1.30;1.20;;;;;;;;;;5132382;27;20203;-60
2021/07/01 12:48:00;;;;;;;1.40;1.30;;;;;;;;;;5132496;27;20226;-60
2021/07/01 12:50:29;;;;;;;1.50;1.40;;;;;;;;;;5132017;27;20234;-59
2021/07/01 12:52:57;;;;;;;2.35;1.73;;;;;;;;;;5132274;27;20271;-61
2021/07/01 12:55:27;;;;;;;1.38;1.27;;;;;;;;;;5132526;27;20204;-60
2021/07/01 12:57:57;;;;;;;1.50;1.40;;;;;;;;;;5145464;27;20190;-60
2021/07/01 13:00:25;;;;;;;1.83;1.67;;;;;;;;;;5149304;27;20197;-60
2021/07/01 13:03:01;;;;;;;1.77;1.40;;;;;;;;;;5153003;27;20740;-60
2021/07/01 13:05:33;;;;;;;1.77;1.55;;;;;;;;;;5152835;27;20262;-59
2021/07/01 13:08:02;;;;;;;1.70;1.60;;;;;;;;;;5153040;27;20301;-60
2021/07/01 13:10:30;;;;;;;1.92;1.80;;;;;;;;;;5153284;27;20194;-61
2021/07/01 13:12:59;;;;;;;5.28;1.70;;;;;;;;;;5152830;27;20289;-61
2021/07/01 13:15:29;;;;;;;2.65;1.65;;;;;;;;;;5152387;27;20198;-60
2021/07/01 13:17:59;;;;;;;2.35;1.80;;;;;;;;;;5152614;27;20649;-61
2021/07/01 13:20:28;;;;;;;2.92;1.70;;;;;;;;;;5152840;27;20282;-59
2021/07/01 13:22:56;;;;;;;1.90;1.67;;;;;;;;;;5152460;27;20540;-60
2021/07/01 13:25:24;;;;;;;2.90;1.98;;;;;;;;;;5152967;27;20247;-59
2021/07/01 13:27:53;;;;;;;3.72;2.00;;;;;;;;;;5152180;27;20721;-61
2021/07/01 13:30:28;;;;;;;1.55;1.45;;;;;;;;;;5152353;27;20194;-59
2021/07/01 13:32:57;;;;;;;2.00;1.83;;;;;;;;;;5152388;27;20188;-60
2021/07/01 13:35:29;;;;;;;1.60;1.50;;;;;;;;;;5152467;27;20289;-62
2021/07/01 13:37:57;;;;;;;2.28;1.10;;;;;;;;;;5152288;27;20728;-61
2021/07/01 13:40:28;;;;;;;1.20;1.02;;;;;;;;;;5152649;27;20651;-59
2021/07/01 13:42:59;;;;;;;1.20;1.00;;;;;;;;;;5151392;27;20188;-60
2021/07/01 13:45:29;;;;;;;2.20;1.10;;;;;;;;;;5131130;27;20184;-61
2021/07/01 13:48:01;;;;;;;1.13;1.02;;;;;;;;;;5131525;27;20269;-62
2021/07/01 13:50:34;;;;;;;1.05;0.90;;;;;;;;;;5131059;27;20658;-61
2021/07/01 13:53:04;;;;;;;2.78;0.90;;;;;;;;;;5131384;27;20544;-61
2021/07/01 13:55:33;;;;;;;1.58;1.10;;;;;;;;;;5131257;27;20199;-60
2021/07/01 13:58:02;;;;;;;2.05;1.20;;;;;;;;;;5131540;27;20209;-62
2021/07/01 14:00:33;;;;;;;1.75;1.20;;;;;;;;;;5130743;27;20201;-64
2021/07/01 14:03:03;;;;;;;1.33;1.23;;;;;;;;;;5131376;27;20281;-65
2021/07/01 14:05:33;;;;;;;2.45;1.27;;;;;;;;;;5130140;27;20737;-64
2021/07/01 14:08:01;;;;;;;2.13;1.20;;;;;;;;;;5131207;27;20198;-61
2021/07/01 14:10:31;;;;;;;1.38;1.27;;;;;;;;;;5131273;27;20233;-61
2021/07/01 14:12:59;;;;;;;2.95;1.25;;;;;;;;;;5110794;28;20203;-62
2021/07/01 14:15:28;;;;;;;1.30;1.20;;;;;;;;;;5131870;27;20213;-62
2021/07/01 14:17:58;;;;;;;2.85;1.20;;;;;;;;;;5133967;27;20205;-60
2021/07/01 14:20:27;;;;;;;2.15;1.00;;;;;;;;;;5134128;27;20194;-61
2021/07/01 14:22:55;;;;;;;1.17;1.08;;;;;;;;;;5134308;27;20195;-63
2021/07/01 14:25:26;;;;;;;1.73;1.08;;;;;;;;;;5133987;27;20220;-62
2021/07/01 14:28:02;;;;;;;0.90;0.82;;;;;;;;;;5133595;27;20195;-63
2021/07/01 14:30:37;;;;;;;1.20;1.10;;;;;;;;;;5133935;27;20222;-64
2021/07/01 14:33:20;;;;;;;1.45;1.20;;;;;;;;;;5133594;27;20198;-63
2021/07/01 14:35:58;;;;;;;1.13;0.98;;;;;;;;;;5130320;27;20198;-63
2021/07/01 14:38:28;;;;;;;1.10;1.00;;;;;;;;;;5133791;27;20193;-63
2021/07/01 14:40:59;;;;;;;1.30;1.20;;;;;;;;;;5133936;27;20197;-63
2021/07/01 14:43:36;;;;;;;1.40;1.20;;;;;;;;;;5133661;27;20237;-64
2021/07/01 14:46:11;;;;;;;1.38;1.20;;;;;;;;;;5133298;27;20189;-63
2021/07/01 14:48:40;;;;;;;3.25;1.13;;;;;;;;;;5133514;27;20230;-63
2021/07/01 14:51:17;;;;;;;1.10;1.00;;;;;;;;;;5133320;27;20238;-63
2021/07/01 14:53:46;;;;;;;4.10;1.30;;;;;;;;;;5134098;27;20179;-63
2021/07/01 14:56:14;;;;;;;1.20;1.10;;;;;;;;;;5133774;27;20198;-64
2021/07/01 14:58:49;;;;;;;2.35;1.00;;;;;;;;;;5133591;27;20207;-64